sensor_id;sensor_type;location;lat;lon;timestamp;P1;durP1;ratioP1;P2;durP2;ratioP2
48028;SDS011;33808;37.368;127.108;2023-03-14T00:00:21;19.20;;;6.40;;
48028;SDS011;33808;37.368;127.108;2023-03-14T00:02:51;20.20;;;7.47;;
48028;SDS011;33808;37.368;127.108;2023-03-14T00:05:21;14.00;;;6.28;;
48028;SDS011;33808;37.368;127.108;2023-03-14T00:07:51;17.67;;;5.80;;
48028;SDS011;33808;37.368;127.108;2023-03-14T00:10:21;18.27;;;5.28;;
48028;SDS011;33808;37.368;127.108;2023-03-14T00:12:50;17.40;;;6.15;;
48028;SDS011;33808;37.368;127.108;2023-03-14T00:15:20;13.32;;;4.80;;
48028;SDS011;33808;37.368;127.108;2023-03-14T00:17:49;15.38;;;4.93;;
48028;SDS011;33808;37.368;127.108;2023-03-14T00:20:19;28.80;;;5.53;;
48028;SDS011;33808;37.368;127.108;2023-03-14T00:22:49;13.18;;;5.50;;
48028;SDS011;33808;37.368;127.108;2023-03-14T00:25:18;20.13;;;5.45;;
48028;SDS011;33808;37.368;127.108;2023-03-14T00:27:50;17.95;;;5.88;;
48028;SDS011;33808;37.368;127.108;2023-03-14T00:30:20;17.23;;;4.55;;
48028;SDS011;33808;37.368;127.108;2023-03-14T00:32:50;16.33;;;5.15;;
48028;SDS011;33808;37.368;127.108;2023-03-14T00:35:19;23.77;;;5.15;;
48028;SDS011;33808;37.368;127.108;2023-03-14T00:37:49;13.07;;;4.88;;
48028;SDS011;33808;37.368;127.108;2023-03-14T00:40:18;14.38;;;4.93;;
48028;SDS011;33808;37.368;127.108;2023-03-14T00:42:48;15.90;;;5.28;;
48028;SDS011;33808;37.368;127.108;2023-03-14T00:45:18;12.02;;;4.72;;
48028;SDS011;33808;37.368;127.108;2023-03-14T00:47:47;13.55;;;5.20;;
48028;SDS011;33808;37.368;127.108;2023-03-14T00:50:17;16.50;;;4.65;;
48028;SDS011;33808;37.368;127.108;2023-03-14T00:52:47;15.50;;;4.35;;
48028;SDS011;33808;37.368;127.108;2023-03-14T00:55:17;19.08;;;4.75;;
48028;SDS011;33808;37.368;127.108;2023-03-14T00:57:46;12.32;;;4.63;;
48028;SDS011;33808;37.368;127.108;2023-03-14T01:00:15;10.45;;;4.25;;
48028;SDS011;33808;37.368;127.108;2023-03-14T01:02:45;19.33;;;5.22;;
48028;SDS011;33808;37.368;127.108;2023-03-14T01:05:15;21.13;;;5.00;;
48028;SDS011;33808;37.368;127.108;2023-03-14T01:07:45;17.10;;;4.70;;
48028;SDS011;33808;37.368;127.108;2023-03-14T01:10:14;11.85;;;4.95;;
48028;SDS011;33808;37.368;127.108;2023-03-14T01:12:45;10.50;;;5.00;;
48028;SDS011;33808;37.368;127.108;2023-03-14T01:15:14;12.23;;;5.38;;
48028;SDS011;33808;37.368;127.108;2023-03-14T01:17:44;18.25;;;5.35;;
48028;SDS011;33808;37.368;127.108;2023-03-14T01:20:14;20.15;;;5.85;;
48028;SDS011;33808;37.368;127.108;2023-03-14T01:22:44;15.95;;;4.85;;
48028;SDS011;33808;37.368;127.108;2023-03-14T01:25:14;22.20;;;4.88;;
48028;SDS011;33808;37.368;127.108;2023-03-14T01:27:44;16.30;;;4.97;;
48028;SDS011;33808;37.368;127.108;2023-03-14T01:30:14;16.95;;;5.35;;
48028;SDS011;33808;37.368;127.108;2023-03-14T01:32:44;15.55;;;4.38;;
48028;SDS011;33808;37.368;127.108;2023-03-14T01:35:14;10.90;;;4.43;;
48028;SDS011;33808;37.368;127.108;2023-03-14T01:37:43;15.85;;;4.75;;
48028;SDS011;33808;37.368;127.108;2023-03-14T01:40:13;16.77;;;4.75;;
48028;SDS011;33808;37.368;127.108;2023-03-14T01:43:06;16.67;;;4.40;;
48028;SDS011;33808;37.368;127.108;2023-03-14T01:59:40;16.60;;;4.18;;
48028;SDS011;33808;37.368;127.108;2023-03-14T02:02:14;12.48;;;3.80;;
48028;SDS011;33808;37.368;127.108;2023-03-14T02:04:45;9.88;;;3.85;;
48028;SDS011;33808;37.368;127.108;2023-03-14T02:07:16;14.15;;;3.45;;
48028;SDS011;33808;37.368;127.108;2023-03-14T02:09:49;14.95;;;4.25;;
48028;SDS011;33808;37.368;127.108;2023-03-14T02:12:19;17.90;;;4.60;;
48028;SDS011;33808;37.368;127.108;2023-03-14T02:14:50;17.50;;;3.80;;
48028;SDS011;33808;37.368;127.108;2023-03-14T02:17:20;13.10;;;3.78;;
48028;SDS011;33808;37.368;127.108;2023-03-14T02:22:47;13.35;;;4.05;;
48028;SDS011;33808;37.368;127.108;2023-03-14T02:28:01;26.10;;;4.75;;
48028;SDS011;33808;37.368;127.108;2023-03-14T02:30:30;11.60;;;4.00;;
48028;SDS011;33808;37.368;127.108;2023-03-14T02:33:05;18.08;;;4.13;;
48028;SDS011;33808;37.368;127.108;2023-03-14T02:41:33;12.23;;;4.28;;
48028;SDS011;33808;37.368;127.108;2023-03-14T02:44:03;18.40;;;3.90;;
48028;SDS011;33808;37.368;127.108;2023-03-14T02:46:32;13.50;;;3.97;;
48028;SDS011;33808;37.368;127.108;2023-03-14T02:49:12;17.38;;;4.45;;
48028;SDS011;33808;37.368;127.108;2023-03-14T02:51:42;21.17;;;4.07;;
48028;SDS011;33808;37.368;127.108;2023-03-14T02:54:14;14.65;;;4.47;;
48028;SDS011;33808;37.368;127.108;2023-03-14T02:56:45;14.27;;;4.28;;
48028;SDS011;33808;37.368;127.108;2023-03-14T02:59:15;12.55;;;4.28;;
48028;SDS011;33808;37.368;127.108;2023-03-14T03:01:45;21.17;;;4.07;;
48028;SDS011;33808;37.368;127.108;2023-03-14T03:04:14;9.32;;;3.67;;
48028;SDS011;33808;37.368;127.108;2023-03-14T03:06:43;16.77;;;3.90;;
48028;SDS011;33808;37.368;127.108;2023-03-14T03:09:13;19.23;;;4.45;;
48028;SDS011;33808;37.368;127.108;2023-03-14T03:11:42;16.05;;;3.92;;
48028;SDS011;33808;37.368;127.108;2023-03-14T03:14:12;11.18;;;3.80;;
48028;SDS011;33808;37.368;127.108;2023-03-14T03:16:42;17.35;;;3.95;;
48028;SDS011;33808;37.368;127.108;2023-03-14T03:19:11;10.10;;;4.18;;
48028;SDS011;33808;37.368;127.108;2023-03-14T03:21:41;25.77;;;4.63;;
48028;SDS011;33808;37.368;127.108;2023-03-14T03:24:11;15.20;;;4.28;;
48028;SDS011;33808;37.368;127.108;2023-03-14T03:26:41;11.60;;;3.65;;
48028;SDS011;33808;37.368;127.108;2023-03-14T03:29:10;16.08;;;4.03;;
48028;SDS011;33808;37.368;127.108;2023-03-14T03:31:40;16.00;;;4.13;;
48028;SDS011;33808;37.368;127.108;2023-03-14T03:34:10;12.63;;;3.75;;
48028;SDS011;33808;37.368;127.108;2023-03-14T03:36:40;11.02;;;3.80;;
48028;SDS011;33808;37.368;127.108;2023-03-14T03:39:10;16.23;;;3.30;;
48028;SDS011;33808;37.368;127.108;2023-03-14T03:41:40;10.82;;;3.53;;
48028;SDS011;33808;37.368;127.108;2023-03-14T03:44:09;10.88;;;3.30;;
48028;SDS011;33808;37.368;127.108;2023-03-14T03:46:40;16.58;;;3.45;;
48028;SDS011;33808;37.368;127.108;2023-03-14T03:49:10;18.60;;;3.40;;
48028;SDS011;33808;37.368;127.108;2023-03-14T03:51:40;12.50;;;3.53;;
48028;SDS011;33808;37.368;127.108;2023-03-14T03:54:10;10.02;;;3.15;;
48028;SDS011;33808;37.368;127.108;2023-03-14T03:56:39;26.63;;;4.05;;
48028;SDS011;33808;37.368;127.108;2023-03-14T03:59:09;17.23;;;3.35;;
48028;SDS011;33808;37.368;127.108;2023-03-14T04:01:38;20.48;;;3.50;;
48028;SDS011;33808;37.368;127.108;2023-03-14T04:04:08;11.95;;;3.47;;
48028;SDS011;33808;37.368;127.108;2023-03-14T04:06:38;8.82;;;3.70;;
48028;SDS011;33808;37.368;127.108;2023-03-14T04:09:10;11.13;;;3.15;;
48028;SDS011;33808;37.368;127.108;2023-03-14T04:11:40;9.25;;;2.75;;
48028;SDS011;33808;37.368;127.108;2023-03-14T04:14:10;13.07;;;3.28;;
48028;SDS011;33808;37.368;127.108;2023-03-14T04:16:39;9.35;;;3.35;;
48028;SDS011;33808;37.368;127.108;2023-03-14T04:19:09;8.88;;;3.17;;
48028;SDS011;33808;37.368;127.108;2023-03-14T04:21:39;17.63;;;2.80;;
48028;SDS011;33808;37.368;127.108;2023-03-14T04:26:42;17.90;;;4.72;;
48028;SDS011;33808;37.368;127.108;2023-03-14T04:29:11;19.48;;;3.35;;
48028;SDS011;33808;37.368;127.108;2023-03-14T04:31:41;9.02;;;3.65;;
48028;SDS011;33808;37.368;127.108;2023-03-14T04:34:11;13.27;;;3.35;;
48028;SDS011;33808;37.368;127.108;2023-03-14T04:36:40;8.05;;;3.05;;
48028;SDS011;33808;37.368;127.108;2023-03-14T04:39:09;8.70;;;3.40;;
48028;SDS011;33808;37.368;127.108;2023-03-14T04:41:39;10.10;;;3.15;;
48028;SDS011;33808;37.368;127.108;2023-03-14T04:44:09;17.08;;;3.75;;
48028;SDS011;33808;37.368;127.108;2023-03-14T04:46:38;12.02;;;3.60;;
48028;SDS011;33808;37.368;127.108;2023-03-14T04:49:08;9.35;;;4.22;;
48028;SDS011;33808;37.368;127.108;2023-03-14T04:51:37;13.32;;;3.05;;
48028;SDS011;33808;37.368;127.108;2023-03-14T04:54:07;11.18;;;3.28;;
48028;SDS011;33808;37.368;127.108;2023-03-14T04:56:37;15.98;;;3.53;;
48028;SDS011;33808;37.368;127.108;2023-03-14T04:59:07;17.08;;;3.80;;
48028;SDS011;33808;37.368;127.108;2023-03-14T05:01:37;13.00;;;3.22;;
48028;SDS011;33808;37.368;127.108;2023-03-14T05:04:06;16.92;;;3.97;;
48028;SDS011;33808;37.368;127.108;2023-03-14T05:06:35;15.93;;;3.83;;
48028;SDS011;33808;37.368;127.108;2023-03-14T05:09:05;10.30;;;3.97;;
48028;SDS011;33808;37.368;127.108;2023-03-14T05:11:35;10.10;;;3.10;;
48028;SDS011;33808;37.368;127.108;2023-03-14T05:14:04;14.27;;;3.45;;
48028;SDS011;33808;37.368;127.108;2023-03-14T05:16:34;11.35;;;3.40;;
48028;SDS011;33808;37.368;127.108;2023-03-14T05:19:04;12.27;;;3.15;;
48028;SDS011;33808;37.368;127.108;2023-03-14T05:21:33;10.88;;;3.00;;
48028;SDS011;33808;37.368;127.108;2023-03-14T05:24:03;11.30;;;3.15;;
48028;SDS011;33808;37.368;127.108;2023-03-14T05:26:33;12.00;;;3.45;;
48028;SDS011;33808;37.368;127.108;2023-03-14T05:29:03;18.58;;;2.80;;
48028;SDS011;33808;37.368;127.108;2023-03-14T05:31:32;9.25;;;3.10;;
48028;SDS011;33808;37.368;127.108;2023-03-14T05:34:02;10.02;;;3.20;;
48028;SDS011;33808;37.368;127.108;2023-03-14T05:36:32;10.93;;;2.92;;
48028;SDS011;33808;37.368;127.108;2023-03-14T05:39:02;11.55;;;3.08;;
48028;SDS011;33808;37.368;127.108;2023-03-14T05:41:32;15.85;;;2.47;;
48028;SDS011;33808;37.368;127.108;2023-03-14T05:44:02;11.73;;;2.60;;
48028;SDS011;33808;37.368;127.108;2023-03-14T05:46:31;10.20;;;3.58;;
48028;SDS011;33808;37.368;127.108;2023-03-14T05:49:01;14.52;;;2.63;;
48028;SDS011;33808;37.368;127.108;2023-03-14T05:51:31;14.93;;;3.42;;
48028;SDS011;33808;37.368;127.108;2023-03-14T05:54:00;11.27;;;3.35;;
48028;SDS011;33808;37.368;127.108;2023-03-14T05:56:30;15.80;;;3.25;;
48028;SDS011;33808;37.368;127.108;2023-03-14T05:59:00;18.30;;;3.78;;
48028;SDS011;33808;37.368;127.108;2023-03-14T06:01:31;12.27;;;3.05;;
48028;SDS011;33808;37.368;127.108;2023-03-14T06:04:01;8.98;;;2.88;;
48028;SDS011;33808;37.368;127.108;2023-03-14T06:06:31;18.58;;;4.15;;
48028;SDS011;33808;37.368;127.108;2023-03-14T06:09:01;8.80;;;3.20;;
48028;SDS011;33808;37.368;127.108;2023-03-14T06:11:31;14.70;;;3.90;;
48028;SDS011;33808;37.368;127.108;2023-03-14T06:14:01;14.88;;;3.15;;
48028;SDS011;33808;37.368;127.108;2023-03-14T06:16:31;12.75;;;2.83;;
48028;SDS011;33808;37.368;127.108;2023-03-14T06:19:00;8.23;;;3.10;;
48028;SDS011;33808;37.368;127.108;2023-03-14T06:21:30;7.68;;;3.20;;
48028;SDS011;33808;37.368;127.108;2023-03-14T06:24:00;11.75;;;2.85;;
48028;SDS011;33808;37.368;127.108;2023-03-14T06:26:30;10.38;;;2.75;;
48028;SDS011;33808;37.368;127.108;2023-03-14T06:29:00;7.53;;;2.90;;
48028;SDS011;33808;37.368;127.108;2023-03-14T06:31:31;7.70;;;2.70;;
48028;SDS011;33808;37.368;127.108;2023-03-14T06:34:01;16.45;;;3.53;;
48028;SDS011;33808;37.368;127.108;2023-03-14T06:36:31;12.38;;;3.45;;
48028;SDS011;33808;37.368;127.108;2023-03-14T06:39:01;6.60;;;3.05;;
48028;SDS011;33808;37.368;127.108;2023-03-14T06:41:31;10.65;;;3.13;;
48028;SDS011;33808;37.368;127.108;2023-03-14T06:44:01;12.25;;;4.40;;
48028;SDS011;33808;37.368;127.108;2023-03-14T06:46:31;16.50;;;3.53;;
48028;SDS011;33808;37.368;127.108;2023-03-14T06:49:00;9.05;;;3.38;;
48028;SDS011;33808;37.368;127.108;2023-03-14T06:51:30;12.20;;;3.80;;
48028;SDS011;33808;37.368;127.108;2023-03-14T06:54:00;16.90;;;3.00;;
48028;SDS011;33808;37.368;127.108;2023-03-14T06:56:30;8.80;;;3.28;;
48028;SDS011;33808;37.368;127.108;2023-03-14T06:58:59;13.57;;;3.15;;
48028;SDS011;33808;37.368;127.108;2023-03-14T07:01:29;6.95;;;3.22;;
48028;SDS011;33808;37.368;127.108;2023-03-14T07:04:03;9.85;;;3.65;;
48028;SDS011;33808;37.368;127.108;2023-03-14T07:06:33;9.20;;;3.00;;
48028;SDS011;33808;37.368;127.108;2023-03-14T07:09:02;9.93;;;3.83;;
48028;SDS011;33808;37.368;127.108;2023-03-14T07:11:32;12.48;;;3.33;;
48028;SDS011;33808;37.368;127.108;2023-03-14T07:14:02;7.38;;;2.90;;
48028;SDS011;33808;37.368;127.108;2023-03-14T07:16:32;18.38;;;3.40;;
48028;SDS011;33808;37.368;127.108;2023-03-14T07:19:02;17.38;;;3.80;;
48028;SDS011;33808;37.368;127.108;2023-03-14T07:21:32;9.88;;;3.72;;
48028;SDS011;33808;37.368;127.108;2023-03-14T07:24:03;8.77;;;3.20;;
48028;SDS011;33808;37.368;127.108;2023-03-14T07:26:33;13.65;;;3.42;;
48028;SDS011;33808;37.368;127.108;2023-03-14T07:29:03;9.77;;;3.30;;
48028;SDS011;33808;37.368;127.108;2023-03-14T07:31:33;6.38;;;3.25;;
48028;SDS011;33808;37.368;127.108;2023-03-14T07:34:02;9.48;;;3.80;;
48028;SDS011;33808;37.368;127.108;2023-03-14T07:36:32;16.80;;;3.78;;
48028;SDS011;33808;37.368;127.108;2023-03-14T07:39:02;8.65;;;2.95;;
48028;SDS011;33808;37.368;127.108;2023-03-14T07:41:32;8.48;;;3.00;;
48028;SDS011;33808;37.368;127.108;2023-03-14T07:44:01;14.70;;;3.83;;
48028;SDS011;33808;37.368;127.108;2023-03-14T07:46:30;6.80;;;3.78;;
48028;SDS011;33808;37.368;127.108;2023-03-14T07:49:00;14.93;;;3.63;;
48028;SDS011;33808;37.368;127.108;2023-03-14T07:51:29;15.00;;;2.90;;
48028;SDS011;33808;37.368;127.108;2023-03-14T07:53:58;11.60;;;3.53;;
48028;SDS011;33808;37.368;127.108;2023-03-14T07:56:29;15.38;;;3.42;;
48028;SDS011;33808;37.368;127.108;2023-03-14T07:58:58;8.50;;;3.25;;
48028;SDS011;33808;37.368;127.108;2023-03-14T08:01:27;11.18;;;2.97;;
48028;SDS011;33808;37.368;127.108;2023-03-14T08:03:57;9.82;;;3.13;;
48028;SDS011;33808;37.368;127.108;2023-03-14T08:06:27;15.80;;;3.45;;
48028;SDS011;33808;37.368;127.108;2023-03-14T08:08:57;11.35;;;3.30;;
48028;SDS011;33808;37.368;127.108;2023-03-14T08:11:26;9.68;;;3.50;;
48028;SDS011;33808;37.368;127.108;2023-03-14T08:13:55;13.10;;;3.13;;
48028;SDS011;33808;37.368;127.108;2023-03-14T08:16:25;11.27;;;3.13;;
48028;SDS011;33808;37.368;127.108;2023-03-14T08:18:55;6.88;;;3.03;;
48028;SDS011;33808;37.368;127.108;2023-03-14T08:21:25;5.50;;;2.60;;
48028;SDS011;33808;37.368;127.108;2023-03-14T08:23:55;7.63;;;2.47;;
48028;SDS011;33808;37.368;127.108;2023-03-14T08:26:25;16.23;;;3.78;;
48028;SDS011;33808;37.368;127.108;2023-03-14T08:28:55;4.93;;;2.35;;
48028;SDS011;33808;37.368;127.108;2023-03-14T08:31:24;8.25;;;2.45;;
48028;SDS011;33808;37.368;127.108;2023-03-14T08:33:53;10.38;;;3.15;;
48028;SDS011;33808;37.368;127.108;2023-03-14T08:36:23;17.10;;;3.10;;
48028;SDS011;33808;37.368;127.108;2023-03-14T08:38:53;7.00;;;3.08;;
48028;SDS011;33808;37.368;127.108;2023-03-14T08:41:23;13.32;;;2.97;;
48028;SDS011;33808;37.368;127.108;2023-03-14T08:43:53;6.93;;;2.13;;
48028;SDS011;33808;37.368;127.108;2023-03-14T08:46:22;8.15;;;2.50;;
48028;SDS011;33808;37.368;127.108;2023-03-14T08:48:52;12.35;;;2.85;;
48028;SDS011;33808;37.368;127.108;2023-03-14T08:51:22;9.18;;;2.83;;
48028;SDS011;33808;37.368;127.108;2023-03-14T08:53:52;8.88;;;2.40;;
48028;SDS011;33808;37.368;127.108;2023-03-14T08:56:21;11.77;;;2.42;;
48028;SDS011;33808;37.368;127.108;2023-03-14T08:58:51;13.85;;;3.38;;
48028;SDS011;33808;37.368;127.108;2023-03-14T09:01:21;10.20;;;2.75;;
48028;SDS011;33808;37.368;127.108;2023-03-14T09:03:53;11.35;;;2.70;;
48028;SDS011;33808;37.368;127.108;2023-03-14T09:06:23;11.13;;;2.63;;
48028;SDS011;33808;37.368;127.108;2023-03-14T09:08:53;11.68;;;2.25;;
48028;SDS011;33808;37.368;127.108;2023-03-14T09:11:22;6.82;;;2.13;;
48028;SDS011;33808;37.368;127.108;2023-03-14T09:13:52;8.57;;;2.90;;
48028;SDS011;33808;37.368;127.108;2023-03-14T09:16:22;6.40;;;2.00;;
48028;SDS011;33808;37.368;127.108;2023-03-14T09:18:52;12.02;;;2.55;;
48028;SDS011;33808;37.368;127.108;2023-03-14T09:21:22;10.32;;;2.60;;
48028;SDS011;33808;37.368;127.108;2023-03-14T09:23:52;9.45;;;2.50;;
48028;SDS011;33808;37.368;127.108;2023-03-14T09:26:22;15.48;;;2.45;;
48028;SDS011;33808;37.368;127.108;2023-03-14T09:28:51;8.93;;;2.28;;
48028;SDS011;33808;37.368;127.108;2023-03-14T09:31:24;9.80;;;3.08;;
48028;SDS011;33808;37.368;127.108;2023-03-14T09:33:53;8.68;;;2.05;;
48028;SDS011;33808;37.368;127.108;2023-03-14T09:36:23;10.35;;;2.58;;
48028;SDS011;33808;37.368;127.108;2023-03-14T09:38:53;6.95;;;2.38;;
48028;SDS011;33808;37.368;127.108;2023-03-14T09:41:30;10.60;;;2.20;;
48028;SDS011;33808;37.368;127.108;2023-03-14T09:44:20;8.75;;;2.00;;
48028;SDS011;33808;37.368;127.108;2023-03-14T09:46:52;8.68;;;2.47;;
48028;SDS011;33808;37.368;127.108;2023-03-14T09:49:25;5.77;;;1.87;;
48028;SDS011;33808;37.368;127.108;2023-03-14T09:51:59;15.15;;;2.25;;
48028;SDS011;33808;37.368;127.108;2023-03-14T09:57:13;10.50;;;2.20;;
48028;SDS011;33808;37.368;127.108;2023-03-14T09:59:46;10.20;;;2.25;;
48028;SDS011;33808;37.368;127.108;2023-03-14T10:02:39;8.63;;;1.75;;
48028;SDS011;33808;37.368;127.108;2023-03-14T10:05:13;7.32;;;1.75;;
48028;SDS011;33808;37.368;127.108;2023-03-14T10:07:45;8.35;;;1.70;;
48028;SDS011;33808;37.368;127.108;2023-03-14T10:10:19;4.95;;;1.95;;
48028;SDS011;33808;37.368;127.108;2023-03-14T10:15:54;5.88;;;2.33;;
48028;SDS011;33808;37.368;127.108;2023-03-14T10:18:30;4.28;;;1.70;;
48028;SDS011;33808;37.368;127.108;2023-03-14T10:23:46;9.88;;;2.10;;
48028;SDS011;33808;37.368;127.108;2023-03-14T10:26:17;4.70;;;1.77;;
48028;SDS011;33808;37.368;127.108;2023-03-14T10:28:52;6.40;;;2.00;;
48028;SDS011;33808;37.368;127.108;2023-03-14T10:31:45;7.55;;;1.98;;
48028;SDS011;33808;37.368;127.108;2023-03-14T10:34:16;7.45;;;2.20;;
48028;SDS011;33808;37.368;127.108;2023-03-14T10:36:54;9.93;;;2.00;;
48028;SDS011;33808;37.368;127.108;2023-03-14T10:39:38;6.85;;;2.08;;
48028;SDS011;33808;37.368;127.108;2023-03-14T10:42:27;7.70;;;1.65;;
48028;SDS011;33808;37.368;127.108;2023-03-14T10:47:51;8.73;;;2.42;;
48028;SDS011;33808;37.368;127.108;2023-03-14T10:50:27;15.35;;;2.25;;
48028;SDS011;33808;37.368;127.108;2023-03-14T10:53:02;10.10;;;2.22;;
48028;SDS011;33808;37.368;127.108;2023-03-14T10:55:42;9.25;;;1.83;;
48028;SDS011;33808;37.368;127.108;2023-03-14T10:58:27;10.93;;;2.40;;
48028;SDS011;33808;37.368;127.108;2023-03-14T11:03:38;9.80;;;1.77;;
48028;SDS011;33808;37.368;127.108;2023-03-14T11:06:16;4.95;;;2.60;;
48028;SDS011;33808;37.368;127.108;2023-03-14T11:09:05;8.95;;;2.42;;
48028;SDS011;33808;37.368;127.108;2023-03-14T11:11:45;7.22;;;1.90;;
48028;SDS011;33808;37.368;127.108;2023-03-14T11:30:58;7.70;;;2.28;;
48028;SDS011;33808;37.368;127.108;2023-03-14T11:37:21;9.88;;;1.95;;
48028;SDS011;33808;37.368;127.108;2023-03-14T11:39:39;10.48;;;2.22;;
48028;SDS011;33808;37.368;127.108;2023-03-14T11:42:17;7.88;;;1.98;;
48028;SDS011;33808;37.368;127.108;2023-03-14T11:50:04;4.05;;;2.05;;
48028;SDS011;33808;37.368;127.108;2023-03-14T11:52:50;10.10;;;2.88;;
48028;SDS011;33808;37.368;127.108;2023-03-14T11:55:34;10.13;;;2.40;;
48028;SDS011;33808;37.368;127.108;2023-03-14T11:58:50;5.85;;;1.83;;
48028;SDS011;33808;37.368;127.108;2023-03-14T12:01:06;8.30;;;2.40;;
48028;SDS011;33808;37.368;127.108;2023-03-14T12:03:44;10.88;;;2.30;;
48028;SDS011;33808;37.368;127.108;2023-03-14T12:09:10;11.73;;;2.63;;
48028;SDS011;33808;37.368;127.108;2023-03-14T12:11:50;8.13;;;2.47;;
48028;SDS011;33808;37.368;127.108;2023-03-14T12:14:32;9.95;;;2.80;;
48028;SDS011;33808;37.368;127.108;2023-03-14T12:23:05;8.93;;;2.83;;
48028;SDS011;33808;37.368;127.108;2023-03-14T12:25:40;7.93;;;2.70;;
48028;SDS011;33808;37.368;127.108;2023-03-14T12:28:18;8.65;;;2.80;;
48028;SDS011;33808;37.368;127.108;2023-03-14T12:31:35;16.80;;;3.28;;
48028;SDS011;33808;37.368;127.108;2023-03-14T12:49:52;15.23;;;3.28;;
48028;SDS011;33808;37.368;127.108;2023-03-14T12:52:33;9.18;;;3.53;;
48028;SDS011;33808;37.368;127.108;2023-03-14T13:01:04;15.88;;;3.70;;
48028;SDS011;33808;37.368;127.108;2023-03-14T13:03:52;12.50;;;3.40;;
48028;SDS011;33808;37.368;127.108;2023-03-14T13:12:01;13.65;;;4.30;;
48028;SDS011;33808;37.368;127.108;2023-03-14T13:14:32;11.23;;;3.63;;
48028;SDS011;33808;37.368;127.108;2023-03-14T13:17:02;15.93;;;4.05;;
48028;SDS011;33808;37.368;127.108;2023-03-14T13:19:55;14.88;;;3.67;;
48028;SDS011;33808;37.368;127.108;2023-03-14T13:22:30;14.35;;;4.40;;
48028;SDS011;33808;37.368;127.108;2023-03-14T13:25:03;23.33;;;4.10;;
48028;SDS011;33808;37.368;127.108;2023-03-14T13:27:35;16.70;;;4.40;;
48028;SDS011;33808;37.368;127.108;2023-03-14T13:30:05;15.20;;;3.80;;
48028;SDS011;33808;37.368;127.108;2023-03-14T13:33:11;14.02;;;4.32;;
48028;SDS011;33808;37.368;127.108;2023-03-14T13:35:44;20.00;;;4.13;;
48028;SDS011;33808;37.368;127.108;2023-03-14T13:38:24;12.30;;;3.67;;
48028;SDS011;33808;37.368;127.108;2023-03-14T13:40:56;13.35;;;4.13;;
48028;SDS011;33808;37.368;127.108;2023-03-14T13:48:43;15.25;;;3.92;;
48028;SDS011;33808;37.368;127.108;2023-03-14T13:51:33;14.85;;;3.95;;
48028;SDS011;33808;37.368;127.108;2023-03-14T13:54:02;15.88;;;4.78;;
48028;SDS011;33808;37.368;127.108;2023-03-14T13:56:41;12.43;;;3.90;;
48028;SDS011;33808;37.368;127.108;2023-03-14T14:01:57;11.50;;;4.65;;
48028;SDS011;33808;37.368;127.108;2023-03-14T14:04:52;13.55;;;5.43;;
48028;SDS011;33808;37.368;127.108;2023-03-14T14:07:22;12.30;;;4.97;;
48028;SDS011;33808;37.368;127.108;2023-03-14T14:09:53;13.93;;;4.57;;
48028;SDS011;33808;37.368;127.108;2023-03-14T14:12:24;17.67;;;4.57;;
48028;SDS011;33808;37.368;127.108;2023-03-14T14:15:16;11.38;;;5.10;;
48028;SDS011;33808;37.368;127.108;2023-03-14T14:17:51;17.20;;;4.85;;
48028;SDS011;33808;37.368;127.108;2023-03-14T14:20:27;11.88;;;4.60;;
48028;SDS011;33808;37.368;127.108;2023-03-14T14:23:03;19.75;;;4.70;;
48028;SDS011;33808;37.368;127.108;2023-03-14T14:25:32;18.00;;;5.53;;
48028;SDS011;33808;37.368;127.108;2023-03-14T14:28:36;15.10;;;4.93;;
48028;SDS011;33808;37.368;127.108;2023-03-14T14:33:41;17.13;;;5.10;;
48028;SDS011;33808;37.368;127.108;2023-03-14T14:36:30;15.35;;;5.65;;
48028;SDS011;33808;37.368;127.108;2023-03-14T14:41:48;13.32;;;5.20;;
48028;SDS011;33808;37.368;127.108;2023-03-14T14:44:29;19.00;;;5.55;;
48028;SDS011;33808;37.368;127.108;2023-03-14T14:46:58;15.63;;;6.25;;
48028;SDS011;33808;37.368;127.108;2023-03-14T14:49:31;18.77;;;5.55;;
48028;SDS011;33808;37.368;127.108;2023-03-14T14:52:03;18.17;;;6.10;;
48028;SDS011;33808;37.368;127.108;2023-03-14T14:54:39;12.90;;;5.88;;
48028;SDS011;33808;37.368;127.108;2023-03-14T14:57:26;19.88;;;6.70;;
48028;SDS011;33808;37.368;127.108;2023-03-14T15:00:04;28.58;;;6.07;;
48028;SDS011;33808;37.368;127.108;2023-03-14T15:02:47;13.23;;;6.28;;
48028;SDS011;33808;37.368;127.108;2023-03-14T15:05:22;15.43;;;6.25;;
48028;SDS011;33808;37.368;127.108;2023-03-14T15:07:54;16.55;;;5.78;;
48028;SDS011;33808;37.368;127.108;2023-03-14T15:10:23;19.75;;;6.60;;
48028;SDS011;33808;37.368;127.108;2023-03-14T15:12:54;20.30;;;5.90;;
48028;SDS011;33808;37.368;127.108;2023-03-14T15:15:24;19.17;;;6.15;;
48028;SDS011;33808;37.368;127.108;2023-03-14T15:17:53;19.98;;;6.13;;
48028;SDS011;33808;37.368;127.108;2023-03-14T15:20:23;17.95;;;6.47;;
48028;SDS011;33808;37.368;127.108;2023-03-14T15:22:53;22.52;;;7.03;;
48028;SDS011;33808;37.368;127.108;2023-03-14T15:25:22;23.13;;;6.95;;
48028;SDS011;33808;37.368;127.108;2023-03-14T15:28:19;14.85;;;6.20;;
48028;SDS011;33808;37.368;127.108;2023-03-14T15:30:52;16.85;;;6.00;;
48028;SDS011;33808;37.368;127.108;2023-03-14T15:33:23;17.55;;;6.07;;
48028;SDS011;33808;37.368;127.108;2023-03-14T15:35:53;19.80;;;6.93;;
48028;SDS011;33808;37.368;127.108;2023-03-14T15:38:23;21.52;;;6.97;;
48028;SDS011;33808;37.368;127.108;2023-03-14T15:40:52;22.77;;;7.13;;
48028;SDS011;33808;37.368;127.108;2023-03-14T15:43:22;15.23;;;7.32;;
48028;SDS011;33808;37.368;127.108;2023-03-14T15:45:52;17.77;;;7.50;;
48028;SDS011;33808;37.368;127.108;2023-03-14T15:48:22;18.85;;;6.82;;
48028;SDS011;33808;37.368;127.108;2023-03-14T15:50:51;23.17;;;7.90;;
48028;SDS011;33808;37.368;127.108;2023-03-14T15:53:21;16.23;;;6.72;;
48028;SDS011;33808;37.368;127.108;2023-03-14T15:55:51;21.25;;;6.97;;
48028;SDS011;33808;37.368;127.108;2023-03-14T15:58:20;27.70;;;8.13;;
48028;SDS011;33808;37.368;127.108;2023-03-14T16:00:51;19.70;;;7.07;;
48028;SDS011;33808;37.368;127.108;2023-03-14T16:03:21;16.80;;;7.15;;
48028;SDS011;33808;37.368;127.108;2023-03-14T16:05:51;18.55;;;6.85;;
48028;SDS011;33808;37.368;127.108;2023-03-14T16:08:21;28.77;;;8.65;;
48028;SDS011;33808;37.368;127.108;2023-03-14T16:10:54;18.77;;;7.93;;
48028;SDS011;33808;37.368;127.108;2023-03-14T16:13:24;21.05;;;7.50;;
48028;SDS011;33808;37.368;127.108;2023-03-14T16:15:54;31.35;;;8.30;;
48028;SDS011;33808;37.368;127.108;2023-03-14T16:18:29;22.35;;;8.10;;
48028;SDS011;33808;37.368;127.108;2023-03-14T16:21:04;18.88;;;7.65;;
48028;SDS011;33808;37.368;127.108;2023-03-14T16:23:35;20.90;;;7.57;;
48028;SDS011;33808;37.368;127.108;2023-03-14T16:26:07;19.42;;;7.00;;
48028;SDS011;33808;37.368;127.108;2023-03-14T16:28:43;17.00;;;7.93;;
48028;SDS011;33808;37.368;127.108;2023-03-14T16:31:15;18.75;;;8.20;;
48028;SDS011;33808;37.368;127.108;2023-03-14T16:33:46;25.75;;;8.27;;
48028;SDS011;33808;37.368;127.108;2023-03-14T16:36:14;21.55;;;8.32;;